sensor_id;sensor_type;location;lat;lon;timestamp;P1;durP1;ratioP1;P2;durP2;ratioP2
15327;SDS011;7764;51.430;6.840;2023-04-09T00:01:03;51.30;;;32.60;;
15327;SDS011;7764;51.430;6.840;2023-04-09T00:03:30;51.17;;;33.37;;
15327;SDS011;7764;51.430;6.840;2023-04-09T00:05:57;51.37;;;33.57;;
15327;SDS011;7764;51.430;6.840;2023-04-09T00:08:25;49.57;;;32.87;;
15327;SDS011;7764;51.430;6.840;2023-04-09T00:10:52;46.80;;;30.60;;
15327;SDS011;7764;51.430;6.840;2023-04-09T00:13:20;49.13;;;30.80;;
15327;SDS011;7764;51.430;6.840;2023-04-09T00:15:46;47.43;;;31.70;;
15327;SDS011;7764;51.430;6.840;2023-04-09T00:18:13;47.37;;;32.10;;
15327;SDS011;7764;51.430;6.840;2023-04-09T00:20:41;47.20;;;31.37;;
15327;SDS011;7764;51.430;6.840;2023-04-09T00:23:09;48.67;;;31.17;;
15327;SDS011;7764;51.430;6.840;2023-04-09T00:25:37;47.33;;;31.43;;
15327;SDS011;7764;51.430;6.840;2023-04-09T00:28:04;51.33;;;32.10;;
15327;SDS011;7764;51.430;6.840;2023-04-09T00:30:30;46.77;;;31.50;;
15327;SDS011;7764;51.430;6.840;2023-04-09T00:32:57;46.80;;;29.90;;
15327;SDS011;7764;51.430;6.840;2023-04-09T00:35:24;49.07;;;31.37;;
15327;SDS011;7764;51.430;6.840;2023-04-09T00:37:51;49.20;;;31.33;;
15327;SDS011;7764;51.430;6.840;2023-04-09T00:40:18;47.83;;;30.97;;
15327;SDS011;7764;51.430;6.840;2023-04-09T00:42:46;48.37;;;31.43;;
15327;SDS011;7764;51.430;6.840;2023-04-09T00:45:13;49.47;;;32.57;;
15327;SDS011;7764;51.430;6.840;2023-04-09T00:47:40;49.33;;;31.87;;
15327;SDS011;7764;51.430;6.840;2023-04-09T00:50:09;50.60;;;32.50;;
15327;SDS011;7764;51.430;6.840;2023-04-09T00:52:36;48.90;;;31.57;;
15327;SDS011;7764;51.430;6.840;2023-04-09T00:55:03;51.37;;;32.47;;
15327;SDS011;7764;51.430;6.840;2023-04-09T00:57:31;49.83;;;31.70;;
15327;SDS011;7764;51.430;6.840;2023-04-09T00:59:59;51.17;;;32.90;;
15327;SDS011;7764;51.430;6.840;2023-04-09T01:02:26;49.57;;;31.70;;
15327;SDS011;7764;51.430;6.840;2023-04-09T01:04:54;50.17;;;32.13;;
15327;SDS011;7764;51.430;6.840;2023-04-09T01:07:24;53.47;;;33.23;;
15327;SDS011;7764;51.430;6.840;2023-04-09T01:10:00;55.43;;;33.60;;
15327;SDS011;7764;51.430;6.840;2023-04-09T01:12:37;52.03;;;33.97;;
15327;SDS011;7764;51.430;6.840;2023-04-09T01:15:14;52.10;;;32.63;;
15327;SDS011;7764;51.430;6.840;2023-04-09T01:17:49;51.67;;;33.07;;
15327;SDS011;7764;51.430;6.840;2023-04-09T01:20:21;53.30;;;33.93;;
15327;SDS011;7764;51.430;6.840;2023-04-09T01:22:56;50.70;;;32.57;;
15327;SDS011;7764;51.430;6.840;2023-04-09T01:25:37;51.83;;;32.03;;
15327;SDS011;7764;51.430;6.840;2023-04-09T01:28:18;55.83;;;33.27;;
15327;SDS011;7764;51.430;6.840;2023-04-09T01:30:47;54.80;;;33.60;;
15327;SDS011;7764;51.430;6.840;2023-04-09T01:33:17;48.93;;;31.70;;
15327;SDS011;7764;51.430;6.840;2023-04-09T01:35:45;52.70;;;34.43;;
15327;SDS011;7764;51.430;6.840;2023-04-09T01:38:15;55.90;;;34.00;;
15327;SDS011;7764;51.430;6.840;2023-04-09T01:40:44;51.97;;;33.03;;
15327;SDS011;7764;51.430;6.840;2023-04-09T01:43:12;53.83;;;33.57;;
15327;SDS011;7764;51.430;6.840;2023-04-09T01:45:41;51.40;;;32.70;;
15327;SDS011;7764;51.430;6.840;2023-04-09T01:48:09;53.47;;;33.70;;
15327;SDS011;7764;51.430;6.840;2023-04-09T01:50:37;51.97;;;33.23;;
15327;SDS011;7764;51.430;6.840;2023-04-09T01:53:05;49.53;;;31.97;;
15327;SDS011;7764;51.430;6.840;2023-04-09T01:55:31;54.00;;;34.00;;
15327;SDS011;7764;51.430;6.840;2023-04-09T01:57:58;53.70;;;33.53;;
15327;SDS011;7764;51.430;6.840;2023-04-09T02:00:26;54.53;;;34.07;;
15327;SDS011;7764;51.430;6.840;2023-04-09T02:03:01;50.67;;;32.63;;
15327;SDS011;7764;51.430;6.840;2023-04-09T02:05:32;52.97;;;33.40;;
15327;SDS011;7764;51.430;6.840;2023-04-09T02:08:02;51.00;;;33.37;;
15327;SDS011;7764;51.430;6.840;2023-04-09T02:10:31;50.67;;;33.00;;
15327;SDS011;7764;51.430;6.840;2023-04-09T02:13:01;51.93;;;33.10;;
15327;SDS011;7764;51.430;6.840;2023-04-09T02:15:33;55.77;;;34.30;;
15327;SDS011;7764;51.430;6.840;2023-04-09T02:18:05;53.83;;;34.97;;
15327;SDS011;7764;51.430;6.840;2023-04-09T02:20:46;57.17;;;34.20;;
15327;SDS011;7764;51.430;6.840;2023-04-09T02:23:14;57.17;;;35.20;;
15327;SDS011;7764;51.430;6.840;2023-04-09T02:25:42;54.33;;;34.07;;
15327;SDS011;7764;51.430;6.840;2023-04-09T02:28:09;57.20;;;35.97;;
15327;SDS011;7764;51.430;6.840;2023-04-09T02:30:36;57.80;;;35.40;;
15327;SDS011;7764;51.430;6.840;2023-04-09T02:33:03;53.63;;;34.53;;
15327;SDS011;7764;51.430;6.840;2023-04-09T02:35:31;56.07;;;34.60;;
15327;SDS011;7764;51.430;6.840;2023-04-09T02:37:58;55.80;;;34.70;;
15327;SDS011;7764;51.430;6.840;2023-04-09T02:40:25;55.40;;;34.50;;
15327;SDS011;7764;51.430;6.840;2023-04-09T02:42:52;53.77;;;34.37;;
15327;SDS011;7764;51.430;6.840;2023-04-09T02:45:19;56.33;;;34.80;;
15327;SDS011;7764;51.430;6.840;2023-04-09T02:47:46;60.00;;;36.20;;
15327;SDS011;7764;51.430;6.840;2023-04-09T02:50:14;58.53;;;36.20;;
15327;SDS011;7764;51.430;6.840;2023-04-09T02:52:42;57.17;;;35.53;;
15327;SDS011;7764;51.430;6.840;2023-04-09T02:55:11;58.63;;;36.10;;
15327;SDS011;7764;51.430;6.840;2023-04-09T02:57:38;59.03;;;36.40;;
15327;SDS011;7764;51.430;6.840;2023-04-09T03:00:05;60.30;;;37.13;;
15327;SDS011;7764;51.430;6.840;2023-04-09T03:02:33;58.67;;;37.50;;
15327;SDS011;7764;51.430;6.840;2023-04-09T03:04:59;62.47;;;37.17;;
15327;SDS011;7764;51.430;6.840;2023-04-09T03:07:28;62.67;;;38.43;;
15327;SDS011;7764;51.430;6.840;2023-04-09T03:09:55;63.83;;;38.00;;
15327;SDS011;7764;51.430;6.840;2023-04-09T03:12:21;64.37;;;38.40;;
15327;SDS011;7764;51.430;6.840;2023-04-09T03:14:48;60.07;;;37.27;;
15327;SDS011;7764;51.430;6.840;2023-04-09T03:17:15;68.83;;;40.60;;
15327;SDS011;7764;51.430;6.840;2023-04-09T03:19:42;66.67;;;40.90;;
15327;SDS011;7764;51.430;6.840;2023-04-09T03:22:09;69.87;;;41.33;;
15327;SDS011;7764;51.430;6.840;2023-04-09T03:24:37;74.63;;;43.00;;
15327;SDS011;7764;51.430;6.840;2023-04-09T03:27:04;66.37;;;41.90;;
15327;SDS011;7764;51.430;6.840;2023-04-09T03:29:31;71.90;;;42.50;;
15327;SDS011;7764;51.430;6.840;2023-04-09T03:31:58;70.37;;;42.63;;
15327;SDS011;7764;51.430;6.840;2023-04-09T03:34:24;70.23;;;43.33;;
15327;SDS011;7764;51.430;6.840;2023-04-09T03:36:51;74.33;;;44.80;;
15327;SDS011;7764;51.430;6.840;2023-04-09T03:39:18;76.30;;;46.27;;
15327;SDS011;7764;51.430;6.840;2023-04-09T03:41:46;79.93;;;47.53;;
15327;SDS011;7764;51.430;6.840;2023-04-09T03:44:13;72.43;;;45.93;;
15327;SDS011;7764;51.430;6.840;2023-04-09T03:46:40;75.93;;;45.53;;
15327;SDS011;7764;51.430;6.840;2023-04-09T03:49:07;74.90;;;44.60;;
15327;SDS011;7764;51.430;6.840;2023-04-09T03:51:34;76.90;;;46.23;;
15327;SDS011;7764;51.430;6.840;2023-04-09T03:54:00;70.70;;;44.83;;
15327;SDS011;7764;51.430;6.840;2023-04-09T03:56:27;71.77;;;43.80;;
15327;SDS011;7764;51.430;6.840;2023-04-09T03:58:55;74.07;;;46.40;;
15327;SDS011;7764;51.430;6.840;2023-04-09T04:01:22;76.53;;;45.10;;
15327;SDS011;7764;51.430;6.840;2023-04-09T04:03:49;73.83;;;44.43;;
15327;SDS011;7764;51.430;6.840;2023-04-09T04:06:16;75.70;;;46.10;;
15327;SDS011;7764;51.430;6.840;2023-04-09T04:08:43;77.03;;;45.77;;
15327;SDS011;7764;51.430;6.840;2023-04-09T04:11:12;73.77;;;45.03;;
15327;SDS011;7764;51.430;6.840;2023-04-09T04:13:39;74.03;;;43.90;;
15327;SDS011;7764;51.430;6.840;2023-04-09T04:16:08;77.17;;;45.03;;
15327;SDS011;7764;51.430;6.840;2023-04-09T04:18:35;73.37;;;44.60;;
15327;SDS011;7764;51.430;6.840;2023-04-09T04:21:02;70.33;;;45.23;;
15327;SDS011;7764;51.430;6.840;2023-04-09T04:23:29;71.63;;;43.90;;
15327;SDS011;7764;51.430;6.840;2023-04-09T04:25:56;71.97;;;44.37;;
15327;SDS011;7764;51.430;6.840;2023-04-09T04:28:23;73.53;;;44.60;;
15327;SDS011;7764;51.430;6.840;2023-04-09T04:30:49;75.63;;;45.60;;
15327;SDS011;7764;51.430;6.840;2023-04-09T04:33:18;74.43;;;44.50;;
15327;SDS011;7764;51.430;6.840;2023-04-09T04:35:44;73.93;;;44.10;;
15327;SDS011;7764;51.430;6.840;2023-04-09T04:38:11;73.07;;;44.37;;
15327;SDS011;7764;51.430;6.840;2023-04-09T04:40:38;74.17;;;45.17;;
15327;SDS011;7764;51.430;6.840;2023-04-09T04:43:05;72.63;;;43.83;;
15327;SDS011;7764;51.430;6.840;2023-04-09T04:45:32;72.63;;;44.43;;
15327;SDS011;7764;51.430;6.840;2023-04-09T04:47:58;74.60;;;46.23;;
15327;SDS011;7764;51.430;6.840;2023-04-09T04:50:27;78.63;;;45.13;;
15327;SDS011;7764;51.430;6.840;2023-04-09T04:52:53;75.60;;;44.80;;
15327;SDS011;7764;51.430;6.840;2023-04-09T04:55:20;76.43;;;45.17;;
15327;SDS011;7764;51.430;6.840;2023-04-09T04:57:49;73.90;;;44.53;;
15327;SDS011;7764;51.430;6.840;2023-04-09T05:00:16;74.73;;;43.73;;
15327;SDS011;7764;51.430;6.840;2023-04-09T05:02:43;70.17;;;43.17;;
15327;SDS011;7764;51.430;6.840;2023-04-09T05:05:09;71.07;;;43.60;;
15327;SDS011;7764;51.430;6.840;2023-04-09T05:07:38;71.37;;;42.77;;
15327;SDS011;7764;51.430;6.840;2023-04-09T05:10:05;70.97;;;41.73;;
15327;SDS011;7764;51.430;6.840;2023-04-09T05:12:33;68.73;;;43.10;;
15327;SDS011;7764;51.430;6.840;2023-04-09T05:15:00;67.83;;;41.00;;
15327;SDS011;7764;51.430;6.840;2023-04-09T05:17:27;69.90;;;42.20;;
15327;SDS011;7764;51.430;6.840;2023-04-09T05:19:54;69.50;;;42.63;;
15327;SDS011;7764;51.430;6.840;2023-04-09T05:22:22;71.73;;;41.57;;
15327;SDS011;7764;51.430;6.840;2023-04-09T05:24:50;71.43;;;42.93;;
15327;SDS011;7764;51.430;6.840;2023-04-09T05:27:17;69.63;;;40.73;;
15327;SDS011;7764;51.430;6.840;2023-04-09T05:29:46;64.47;;;40.33;;
15327;SDS011;7764;51.430;6.840;2023-04-09T05:32:12;66.33;;;40.40;;
15327;SDS011;7764;51.430;6.840;2023-04-09T05:34:40;65.70;;;39.90;;
15327;SDS011;7764;51.430;6.840;2023-04-09T05:37:06;65.57;;;41.57;;
15327;SDS011;7764;51.430;6.840;2023-04-09T05:39:33;65.83;;;40.03;;
15327;SDS011;7764;51.430;6.840;2023-04-09T05:42:01;64.73;;;39.97;;
15327;SDS011;7764;51.430;6.840;2023-04-09T05:44:28;61.57;;;38.90;;
15327;SDS011;7764;51.430;6.840;2023-04-09T05:46:55;70.97;;;39.90;;
15327;SDS011;7764;51.430;6.840;2023-04-09T05:49:22;85.43;;;44.73;;
15327;SDS011;7764;51.430;6.840;2023-04-09T05:51:49;63.67;;;39.40;;
15327;SDS011;7764;51.430;6.840;2023-04-09T05:54:16;64.30;;;39.40;;
15327;SDS011;7764;51.430;6.840;2023-04-09T05:56:43;62.83;;;39.77;;
15327;SDS011;7764;51.430;6.840;2023-04-09T05:59:11;62.53;;;38.77;;
15327;SDS011;7764;51.430;6.840;2023-04-09T06:01:38;62.67;;;39.37;;
15327;SDS011;7764;51.430;6.840;2023-04-09T06:04:05;63.90;;;39.50;;
15327;SDS011;7764;51.430;6.840;2023-04-09T06:06:32;57.33;;;36.43;;
15327;SDS011;7764;51.430;6.840;2023-04-09T06:08:59;59.17;;;35.70;;
15327;SDS011;7764;51.430;6.840;2023-04-09T06:11:25;54.03;;;35.87;;
15327;SDS011;7764;51.430;6.840;2023-04-09T06:13:52;52.30;;;34.90;;
15327;SDS011;7764;51.430;6.840;2023-04-09T06:16:20;47.60;;;33.67;;
15327;SDS011;7764;51.430;6.840;2023-04-09T06:18:47;49.33;;;33.97;;
15327;SDS011;7764;51.430;6.840;2023-04-09T06:21:18;47.70;;;33.50;;
15327;SDS011;7764;51.430;6.840;2023-04-09T06:23:45;45.47;;;31.93;;
15327;SDS011;7764;51.430;6.840;2023-04-09T06:26:11;42.97;;;31.50;;
15327;SDS011;7764;51.430;6.840;2023-04-09T06:28:39;41.27;;;29.97;;
15327;SDS011;7764;51.430;6.840;2023-04-09T06:31:06;37.43;;;28.53;;
15327;SDS011;7764;51.430;6.840;2023-04-09T06:33:34;37.23;;;27.40;;
15327;SDS011;7764;51.430;6.840;2023-04-09T06:36:01;34.93;;;27.37;;
15327;SDS011;7764;51.430;6.840;2023-04-09T06:38:28;36.83;;;27.57;;
15327;SDS011;7764;51.430;6.840;2023-04-09T06:40:55;36.10;;;27.03;;
15327;SDS011;7764;51.430;6.840;2023-04-09T06:43:22;35.37;;;26.83;;
15327;SDS011;7764;51.430;6.840;2023-04-09T06:45:49;33.33;;;27.00;;
15327;SDS011;7764;51.430;6.840;2023-04-09T06:48:16;32.07;;;25.77;;
15327;SDS011;7764;51.430;6.840;2023-04-09T06:50:44;35.60;;;27.23;;
15327;SDS011;7764;51.430;6.840;2023-04-09T06:53:11;30.80;;;24.80;;
15327;SDS011;7764;51.430;6.840;2023-04-09T06:55:38;29.17;;;23.23;;
15327;SDS011;7764;51.430;6.840;2023-04-09T06:58:05;27.90;;;22.95;;
15327;SDS011;7764;51.430;6.840;2023-04-09T07:00:31;28.33;;;22.58;;
15327;SDS011;7764;51.430;6.840;2023-04-09T07:02:58;28.88;;;23.20;;
15327;SDS011;7764;51.430;6.840;2023-04-09T07:05:25;27.73;;;22.23;;
15327;SDS011;7764;51.430;6.840;2023-04-09T07:07:53;28.55;;;21.90;;
15327;SDS011;7764;51.430;6.840;2023-04-09T07:10:20;24.67;;;20.58;;
15327;SDS011;7764;51.430;6.840;2023-04-09T07:12:47;27.20;;;21.48;;
15327;SDS011;7764;51.430;6.840;2023-04-09T07:15:14;25.50;;;20.20;;
15327;SDS011;7764;51.430;6.840;2023-04-09T07:17:41;27.52;;;21.83;;
15327;SDS011;7764;51.430;6.840;2023-04-09T07:20:08;25.45;;;20.40;;
15327;SDS011;7764;51.430;6.840;2023-04-09T07:22:36;26.98;;;20.58;;
15327;SDS011;7764;51.430;6.840;2023-04-09T07:25:04;33.75;;;27.17;;
15327;SDS011;7764;51.430;6.840;2023-04-09T07:27:32;29.95;;;23.48;;
15327;SDS011;7764;51.430;6.840;2023-04-09T07:29:59;27.33;;;21.45;;
15327;SDS011;7764;51.430;6.840;2023-04-09T07:32:26;24.77;;;20.30;;
15327;SDS011;7764;51.430;6.840;2023-04-09T07:34:53;28.05;;;20.40;;
15327;SDS011;7764;51.430;6.840;2023-04-09T07:37:21;23.63;;;18.63;;
15327;SDS011;7764;51.430;6.840;2023-04-09T07:39:48;22.08;;;18.23;;
15327;SDS011;7764;51.430;6.840;2023-04-09T07:42:17;21.35;;;17.75;;
15327;SDS011;7764;51.430;6.840;2023-04-09T07:44:43;21.63;;;17.48;;
15327;SDS011;7764;51.430;6.840;2023-04-09T07:47:11;21.58;;;17.98;;
15327;SDS011;7764;51.430;6.840;2023-04-09T07:49:38;22.15;;;17.98;;
15327;SDS011;7764;51.430;6.840;2023-04-09T07:52:05;20.95;;;17.30;;
15327;SDS011;7764;51.430;6.840;2023-04-09T07:54:32;22.98;;;17.40;;
15327;SDS011;7764;51.430;6.840;2023-04-09T07:57:00;20.65;;;16.13;;
15327;SDS011;7764;51.430;6.840;2023-04-09T07:59:28;21.65;;;16.92;;
15327;SDS011;7764;51.430;6.840;2023-04-09T08:01:56;16.88;;;13.73;;
15327;SDS011;7764;51.430;6.840;2023-04-09T08:04:23;17.95;;;13.30;;
15327;SDS011;7764;51.430;6.840;2023-04-09T08:06:51;18.83;;;13.75;;
15327;SDS011;7764;51.430;6.840;2023-04-09T08:09:18;18.60;;;14.20;;
15327;SDS011;7764;51.430;6.840;2023-04-09T08:11:45;17.73;;;13.60;;
15327;SDS011;7764;51.430;6.840;2023-04-09T08:14:13;19.45;;;14.38;;
15327;SDS011;7764;51.430;6.840;2023-04-09T08:16:43;18.30;;;12.47;;
15327;SDS011;7764;51.430;6.840;2023-04-09T08:19:11;18.67;;;12.80;;
15327;SDS011;7764;51.430;6.840;2023-04-09T08:21:39;18.00;;;12.20;;
15327;SDS011;7764;51.430;6.840;2023-04-09T08:24:07;15.73;;;11.40;;
15327;SDS011;7764;51.430;6.840;2023-04-09T08:26:35;16.83;;;12.27;;
15327;SDS011;7764;51.430;6.840;2023-04-09T08:29:02;16.97;;;12.37;;
15327;SDS011;7764;51.430;6.840;2023-04-09T08:31:29;16.97;;;11.80;;
15327;SDS011;7764;51.430;6.840;2023-04-09T08:33:57;15.83;;;11.03;;
15327;SDS011;7764;51.430;6.840;2023-04-09T08:36:24;16.00;;;10.57;;
15327;SDS011;7764;51.430;6.840;2023-04-09T08:38:51;15.57;;;10.03;;
15327;SDS011;7764;51.430;6.840;2023-04-09T08:41:19;13.23;;;8.80;;
15327;SDS011;7764;51.430;6.840;2023-04-09T08:43:48;13.20;;;9.00;;
15327;SDS011;7764;51.430;6.840;2023-04-09T08:46:16;12.93;;;8.63;;
15327;SDS011;7764;51.430;6.840;2023-04-09T08:48:43;13.53;;;9.40;;
15327;SDS011;7764;51.430;6.840;2023-04-09T08:51:15;12.97;;;9.33;;
15327;SDS011;7764;51.430;6.840;2023-04-09T08:53:43;14.03;;;8.90;;
15327;SDS011;7764;51.430;6.840;2023-04-09T08:56:11;13.43;;;9.40;;
15327;SDS011;7764;51.430;6.840;2023-04-09T08:58:41;12.87;;;8.97;;
15327;SDS011;7764;51.430;6.840;2023-04-09T09:01:21;12.47;;;8.80;;
15327;SDS011;7764;51.430;6.840;2023-04-09T09:03:53;12.07;;;8.80;;
15327;SDS011;7764;51.430;6.840;2023-04-09T09:06:23;11.20;;;7.87;;
15327;SDS011;7764;51.430;6.840;2023-04-09T09:09:01;11.07;;;7.60;;
15327;SDS011;7764;51.430;6.840;2023-04-09T09:11:29;10.80;;;7.70;;
15327;SDS011;7764;51.430;6.840;2023-04-09T09:13:57;10.87;;;7.40;;
15327;SDS011;7764;51.430;6.840;2023-04-09T09:16:25;11.63;;;8.30;;
15327;SDS011;7764;51.430;6.840;2023-04-09T09:18:52;12.23;;;8.37;;
15327;SDS011;7764;51.430;6.840;2023-04-09T09:21:21;12.10;;;8.10;;
15327;SDS011;7764;51.430;6.840;2023-04-09T09:23:51;10.07;;;7.10;;
15327;SDS011;7764;51.430;6.840;2023-04-09T09:26:19;10.57;;;7.33;;
15327;SDS011;7764;51.430;6.840;2023-04-09T09:28:48;11.37;;;8.00;;
15327;SDS011;7764;51.430;6.840;2023-04-09T09:31:16;12.73;;;8.67;;
15327;SDS011;7764;51.430;6.840;2023-04-09T09:33:44;11.73;;;8.27;;
15327;SDS011;7764;51.430;6.840;2023-04-09T09:36:12;11.13;;;8.07;;
15327;SDS011;7764;51.430;6.840;2023-04-09T09:38:53;11.73;;;7.83;;
15327;SDS011;7764;51.430;6.840;2023-04-09T09:41:21;10.83;;;7.80;;
15327;SDS011;7764;51.430;6.840;2023-04-09T09:43:50;11.50;;;8.03;;
15327;SDS011;7764;51.430;6.840;2023-04-09T09:46:17;10.50;;;7.60;;
15327;SDS011;7764;51.430;6.840;2023-04-09T09:48:44;11.23;;;7.70;;
15327;SDS011;7764;51.430;6.840;2023-04-09T09:51:11;11.13;;;7.53;;
15327;SDS011;7764;51.430;6.840;2023-04-09T09:53:39;11.57;;;7.47;;
15327;SDS011;7764;51.430;6.840;2023-04-09T09:56:11;12.93;;;9.57;;
15327;SDS011;7764;51.430;6.840;2023-04-09T09:58:40;11.60;;;8.30;;
15327;SDS011;7764;51.430;6.840;2023-04-09T10:01:12;12.20;;;8.73;;
15327;SDS011;7764;51.430;6.840;2023-04-09T10:03:43;11.63;;;7.90;;
15327;SDS011;7764;51.430;6.840;2023-04-09T10:06:12;11.97;;;7.97;;
15327;SDS011;7764;51.430;6.840;2023-04-09T10:08:41;11.40;;;8.07;;
15327;SDS011;7764;51.430;6.840;2023-04-09T10:11:10;12.77;;;8.57;;
15327;SDS011;7764;51.430;6.840;2023-04-09T10:13:38;10.43;;;7.43;;
15327;SDS011;7764;51.430;6.840;2023-04-09T10:16:06;11.33;;;8.17;;
15327;SDS011;7764;51.430;6.840;2023-04-09T10:18:35;11.47;;;8.43;;
15327;SDS011;7764;51.430;6.840;2023-04-09T10:21:04;10.20;;;7.70;;
15327;SDS011;7764;51.430;6.840;2023-04-09T10:23:38;9.93;;;7.57;;
15327;SDS011;7764;51.430;6.840;2023-04-09T10:26:06;10.18;;;7.60;;
15327;SDS011;7764;51.430;6.840;2023-04-09T10:28:35;11.80;;;8.07;;
15327;SDS011;7764;51.430;6.840;2023-04-09T10:31:03;10.27;;;7.30;;
15327;SDS011;7764;51.430;6.840;2023-04-09T10:33:30;9.50;;;7.20;;
15327;SDS011;7764;51.430;6.840;2023-04-09T10:35:58;11.13;;;7.78;;
15327;SDS011;7764;51.430;6.840;2023-04-09T10:38:33;9.97;;;7.20;;
15327;SDS011;7764;51.430;6.840;2023-04-09T10:43:49;12.37;;;8.00;;
15327;SDS011;7764;51.430;6.840;2023-04-09T10:46:26;10.83;;;7.67;;
15327;SDS011;7764;51.430;6.840;2023-04-09T10:49:07;9.93;;;7.20;;
15327;SDS011;7764;51.430;6.840;2023-04-09T10:51:35;9.70;;;7.17;;
15327;SDS011;7764;51.430;6.840;2023-04-09T10:54:03;10.55;;;7.30;;
15327;SDS011;7764;51.430;6.840;2023-04-09T10:56:31;10.60;;;7.53;;
15327;SDS011;7764;51.430;6.840;2023-04-09T10:59:00;10.23;;;7.23;;
15327;SDS011;7764;51.430;6.840;2023-04-09T11:01:27;11.53;;;7.00;;
15327;SDS011;7764;51.430;6.840;2023-04-09T11:04:07;9.47;;;6.70;;
15327;SDS011;7764;51.430;6.840;2023-04-09T11:06:41;10.47;;;7.50;;
15327;SDS011;7764;51.430;6.840;2023-04-09T11:09:11;10.60;;;7.07;;
15327;SDS011;7764;51.430;6.840;2023-04-09T11:11:38;9.40;;;7.03;;
15327;SDS011;7764;51.430;6.840;2023-04-09T11:14:07;8.80;;;6.53;;
15327;SDS011;7764;51.430;6.840;2023-04-09T11:16:34;10.70;;;6.90;;
15327;SDS011;7764;51.430;6.840;2023-04-09T11:19:01;9.93;;;7.33;;
15327;SDS011;7764;51.430;6.840;2023-04-09T11:21:28;9.97;;;6.60;;
15327;SDS011;7764;51.430;6.840;2023-04-09T11:23:57;10.13;;;7.03;;
15327;SDS011;7764;51.430;6.840;2023-04-09T11:26:24;9.90;;;7.00;;
15327;SDS011;7764;51.430;6.840;2023-04-09T11:29:03;9.77;;;7.13;;
15327;SDS011;7764;51.430;6.840;2023-04-09T11:31:34;9.87;;;7.47;;
15327;SDS011;7764;51.430;6.840;2023-04-09T11:34:01;10.93;;;7.53;;
15327;SDS011;7764;51.430;6.840;2023-04-09T11:36:28;10.20;;;7.03;;
15327;SDS011;7764;51.430;6.840;2023-04-09T11:38:56;12.17;;;8.40;;
15327;SDS011;7764;51.430;6.840;2023-04-09T11:41:32;12.97;;;7.97;;
15327;SDS011;7764;51.430;6.840;2023-04-09T11:44:00;11.10;;;7.53;;
15327;SDS011;7764;51.430;6.840;2023-04-09T11:46:29;10.50;;;7.67;;
15327;SDS011;7764;51.430;6.840;2023-04-09T11:48:58;9.83;;;7.13;;
15327;SDS011;7764;51.430;6.840;2023-04-09T11:51:26;10.97;;;7.53;;
15327;SDS011;7764;51.430;6.840;2023-04-09T11:53:55;10.47;;;7.30;;
15327;SDS011;7764;51.430;6.840;2023-04-09T11:56:27;10.40;;;7.43;;
15327;SDS011;7764;51.430;6.840;2023-04-09T11:58:55;9.80;;;7.23;;
15327;SDS011;7764;51.430;6.840;2023-04-09T12:01:22;10.47;;;7.50;;
15327;SDS011;7764;51.430;6.840;2023-04-09T12:03:51;9.27;;;6.68;;
15327;SDS011;7764;51.430;6.840;2023-04-09T12:06:20;10.17;;;7.20;;
15327;SDS011;7764;51.430;6.840;2023-04-09T12:08:51;10.25;;;7.40;;
15327;SDS011;7764;51.430;6.840;2023-04-09T12:11:18;13.00;;;10.15;;
15327;SDS011;7764;51.430;6.840;2023-04-09T12:13:45;12.00;;;9.00;;
15327;SDS011;7764;51.430;6.840;2023-04-09T12:16:12;10.50;;;7.37;;
15327;SDS011;7764;51.430;6.840;2023-04-09T12:18:39;9.80;;;7.50;;
15327;SDS011;7764;51.430;6.840;2023-04-09T12:21:06;9.50;;;7.50;;
15327;SDS011;7764;51.430;6.840;2023-04-09T12:23:34;10.60;;;7.50;;
15327;SDS011;7764;51.430;6.840;2023-04-09T12:26:01;9.70;;;6.53;;
15327;SDS011;7764;51.430;6.840;2023-04-09T12:28:30;9.85;;;7.30;;
15327;SDS011;7764;51.430;6.840;2023-04-09T12:30:57;10.17;;;7.87;;
15327;SDS011;7764;51.430;6.840;2023-04-09T12:33:24;10.50;;;7.55;;
15327;SDS011;7764;51.430;6.840;2023-04-09T12:35:51;9.50;;;7.63;;
15327;SDS011;7764;51.430;6.840;2023-04-09T12:38:18;10.77;;;8.07;;
15327;SDS011;7764;51.430;6.840;2023-04-09T12:40:46;11.10;;;8.00;;
15327;SDS011;7764;51.430;6.840;2023-04-09T12:43:13;10.80;;;8.20;;
15327;SDS011;7764;51.430;6.840;2023-04-09T12:45:40;10.98;;;7.63;;
15327;SDS011;7764;51.430;6.840;2023-04-09T12:48:07;11.65;;;8.05;;
15327;SDS011;7764;51.430;6.840;2023-04-09T12:50:34;9.73;;;7.22;;
15327;SDS011;7764;51.430;6.840;2023-04-09T12:53:01;8.57;;;6.57;;
15327;SDS011;7764;51.430;6.840;2023-04-09T12:55:28;10.30;;;7.60;;
15327;SDS011;7764;51.430;6.840;2023-04-09T12:57:57;10.13;;;7.55;;
15327;SDS011;7764;51.430;6.840;2023-04-09T13:00:24;9.27;;;6.67;;
15327;SDS011;7764;51.430;6.840;2023-04-09T13:02:54;8.50;;;6.35;;
15327;SDS011;7764;51.430;6.840;2023-04-09T13:05:22;9.77;;;7.13;;
15327;SDS011;7764;51.430;6.840;2023-04-09T13:07:49;9.07;;;6.85;;
15327;SDS011;7764;51.430;6.840;2023-04-09T13:10:15;11.18;;;7.75;;
15327;SDS011;7764;51.430;6.840;2023-04-09T13:12:42;10.48;;;8.00;;
15327;SDS011;7764;51.430;6.840;2023-04-09T13:15:11;11.43;;;8.32;;
15327;SDS011;7764;51.430;6.840;2023-04-09T13:17:37;10.13;;;7.53;;
15327;SDS011;7764;51.430;6.840;2023-04-09T13:20:05;10.80;;;8.07;;
15327;SDS011;7764;51.430;6.840;2023-04-09T13:22:32;9.52;;;7.40;;
15327;SDS011;7764;51.430;6.840;2023-04-09T13:25:00;9.70;;;7.03;;
15327;SDS011;7764;51.430;6.840;2023-04-09T13:27:26;11.15;;;7.20;;
15327;SDS011;7764;51.430;6.840;2023-04-09T13:29:53;9.70;;;7.60;;
15327;SDS011;7764;51.430;6.840;2023-04-09T13:32:22;10.68;;;7.55;;
15327;SDS011;7764;51.430;6.840;2023-04-09T13:34:48;10.70;;;7.45;;
15327;SDS011;7764;51.430;6.840;2023-04-09T13:37:17;9.87;;;6.97;;
15327;SDS011;7764;51.430;6.840;2023-04-09T13:39:44;9.45;;;7.15;;
15327;SDS011;7764;51.430;6.840;2023-04-09T13:42:11;10.48;;;7.55;;
15327;SDS011;7764;51.430;6.840;2023-04-09T13:44:38;10.80;;;8.00;;
15327;SDS011;7764;51.430;6.840;2023-04-09T13:47:06;10.20;;;7.32;;
15327;SDS011;7764;51.430;6.840;2023-04-09T13:49:36;13.73;;;8.45;;
15327;SDS011;7764;51.430;6.840;2023-04-09T13:52:05;11.95;;;7.57;;
15327;SDS011;7764;51.430;6.840;2023-04-09T13:54:32;10.38;;;7.60;;
15327;SDS011;7764;51.430;6.840;2023-04-09T13:57:00;11.13;;;8.10;;
15327;SDS011;7764;51.430;6.840;2023-04-09T13:59:28;10.20;;;7.43;;
15327;SDS011;7764;51.430;6.840;2023-04-09T14:01:55;9.80;;;7.10;;
15327;SDS011;7764;51.430;6.840;2023-04-09T14:04:22;11.32;;;7.35;;
15327;SDS011;7764;51.430;6.840;2023-04-09T14:06:50;10.52;;;7.28;;
15327;SDS011;7764;51.430;6.840;2023-04-09T14:09:17;10.32;;;7.38;;
15327;SDS011;7764;51.430;6.840;2023-04-09T14:11:44;9.83;;;7.20;;
15327;SDS011;7764;51.430;6.840;2023-04-09T14:14:10;9.50;;;7.40;;
15327;SDS011;7764;51.430;6.840;2023-04-09T14:16:37;11.05;;;7.50;;
15327;SDS011;7764;51.430;6.840;2023-04-09T14:19:04;9.98;;;7.20;;
15327;SDS011;7764;51.430;6.840;2023-04-09T14:21:32;9.33;;;7.03;;
15327;SDS011;7764;51.430;6.840;2023-04-09T14:24:00;10.18;;;7.40;;
15327;SDS011;7764;51.430;6.840;2023-04-09T14:26:27;10.32;;;7.05;;
15327;SDS011;7764;51.430;6.840;2023-04-09T14:28:54;9.45;;;6.90;;
15327;SDS011;7764;51.430;6.840;2023-04-09T14:31:21;9.77;;;7.10;;
15327;SDS011;7764;51.430;6.840;2023-04-09T14:33:48;9.60;;;6.63;;
15327;SDS011;7764;51.430;6.840;2023-04-09T14:36:15;9.23;;;6.57;;
15327;SDS011;7764;51.430;6.840;2023-04-09T14:38:42;8.85;;;6.60;;
15327;SDS011;7764;51.430;6.840;2023-04-09T14:41:11;8.77;;;6.75;;
15327;SDS011;7764;51.430;6.840;2023-04-09T14:43:38;9.23;;;6.90;;
15327;SDS011;7764;51.430;6.840;2023-04-09T14:46:04;9.80;;;6.67;;
15327;SDS011;7764;51.430;6.840;2023-04-09T14:48:35;8.80;;;6.80;;